Aérodrome :
LOGIN :

S'inscrire | Disclaimer

   EN    FR    IT 

 










Légende :    VFR   VFR Marginal   IFR   IFR Intensif   IFR Très Intensif
Visi : 
Plafond : 
>= 8 km
>= 3000ft
5 à 8 km
1000 à 3000 ft
1500m à 5 km
500 à 1000 ft
800 à 1500m
200 à 500 ft
< 800m
< 200 ft
Symboles :   Orages  Brouillard  Fortes neiges  Fortes précipitations  Vent > 20 kt
SIGMETs :   Divers  Orages  Givrage  Turbulence  Onde Orograph.  Cendres Volcan.






- Altitude de l'aérodrome : 392 ft
- Code IATA : CDG


LFPG - Paris-Aeroport Charles De Gaulle

DERNIER METAR :
  • 210900Z 01008KT 9999 FEW013TCU BKN018 BKN046 21/18 Q1010 NOSIG

METARs EXPIRÉS :
  • 210830Z 34007KT 9999 BKN014 BKN040 21/18 Q1010 NOSIG
  • 210800Z 36007KT 9999 BKN011 BKN045 21/18 Q1009 NOSIG
  • 210730Z 35009KT 9999 BKN011 21/19 Q1009 NOSIG
  • 210700Z 33007KT 9999 BKN006 21/19 Q1008 NOSIG
  • 210630Z 32006KT 9999 BKN007 21/19 Q1008 NOSIG
  • 210600Z VRB03KT 9999 SCT006 SCT014 20/19 Q1008 NOSIG
  • 210530Z VRB03KT 9999 BKN013 20/19 Q1008 NOSIG
  • 210500Z 21004KT 170V290 9999 FEW015 BKN073 20/19 Q1007
  • 210430Z 22005KT CAVOK 20/18 Q1007

TAF TAF LFPG
Valide du 21 à 06h jusqu'au 22 à 12h UTC


210500Z 2106/2212 21005KT 9999 BKN013 TX26/2115Z TN14/2206Z
TEMPO 2106/2109 BKN008
PROB30
TEMPO 2108/2115 4000 -SHRA SCT030TCU
BECMG 2115/2117 30010KT SCT020 BKN040
ATIS : +33 1 48 62 10 92



MET'MAP, la Météo Aéronautique d'un coup d'oeil ! - Copyright ORBIFLY Décembre 2007 - Disclaimer

ORBIFLY MET'MAP TEAM :

Programmation & Développement : Alexandra Zaïnal
Sur une idée originale de : Baudouin d'Aumeries
Soutien technique & logistique : Manuel Goepfert
Assistance : Marc-Olivier Méhu




SOURCES & CREDITS :

   NOAA